Time;durP1;ratioP1;P1;durP2;ratioP2;P2;SDS_P1;SDS_P2;PMS_P1;PMS_P2;Temp;Humidity;BMP_temperature;BMP_pressure;BME280_temperature;BME280_humidity;BME280_pressure;Samples;Min_cycle;Max_cycle;Signal;HPM_P1;HPM_P2
2021/06/06 00:00:30;;;;;;;18.13;16.00;;;;;;;17.88;100.00;100819.17;635950;225;23921;-74
2021/06/06 00:02:58;;;;;;;17.33;14.90;;;;;;;17.92;100.00;100822.26;619171;229;23874;-75
2021/06/06 00:05:26;;;;;;;23.20;17.23;;;;;;;17.94;100.00;100822.89;619309;229;23901;-75
2021/06/06 00:07:54;;;;;;;21.57;16.10;;;;;;;17.79;100.00;100819.72;625996;226;23830;-75
2021/06/06 00:10:22;;;;;;;18.70;16.70;;;;;;;17.76;100.00;100815.32;625893;229;23954;-74
2021/06/06 00:12:50;;;;;;;20.70;16.93;;;;;;;17.69;100.00;100822.27;636201;224;23866;-75
2021/06/06 00:15:18;;;;;;;20.53;16.03;;;;;;;17.80;100.00;100814.78;635165;225;27015;-74
2021/06/06 00:17:46;;;;;;;20.50;17.43;;;;;;;17.82;100.00;100813.78;631203;225;23918;-77
2021/06/06 00:20:15;;;;;;;18.93;16.80;;;;;;;17.61;100.00;100819.19;619754;229;23935;-75
2021/06/06 00:22:43;;;;;;;20.00;15.30;;;;;;;17.45;100.00;100817.50;615607;230;28010;-76
2021/06/06 00:25:12;;;;;;;22.37;17.40;;;;;;;17.50;100.00;100822.22;624848;228;23877;-77
2021/06/06 00:27:40;;;;;;;20.53;15.83;;;;;;;17.76;100.00;100822.72;638569;225;23951;-75
2021/06/06 00:30:09;;;;;;;20.30;17.00;;;;;;;17.66;100.00;100815.52;637745;225;23889;-76
2021/06/06 00:32:37;;;;;;;21.40;17.07;;;;;;;17.55;100.00;100821.19;626876;225;23889;-74
2021/06/06 00:35:06;;;;;;;23.45;19.30;;;;;;;17.88;100.00;100823.12;618628;228;33030;-76
2021/06/06 00:37:34;;;;;;;22.70;18.20;;;;;;;17.52;100.00;100825.48;628384;227;22794;-75
2021/06/06 00:40:02;;;;;;;24.60;19.27;;;;;;;17.44;100.00;100815.83;628941;227;24861;-76
2021/06/06 00:42:30;;;;;;;22.63;16.67;;;;;;;17.32;100.00;100822.52;629465;226;26092;-74
2021/06/06 00:44:58;;;;;;;24.40;17.57;;;;;;;17.37;100.00;100825.92;626983;226;23920;-74
2021/06/06 00:47:29;;;;;;;24.30;17.40;;;;;;;17.30;100.00;100828.41;637755;225;24912;-75
2021/06/06 00:49:54;;;;;;;21.60;16.23;;;;;;;17.30;100.00;100830.23;628481;228;23867;-77
2021/06/06 00:52:22;;;;;;;25.25;19.75;;;;;;;17.48;100.00;100817.64;622604;228;32914;-76
2021/06/06 00:54:50;;;;;;;24.80;18.67;;;;;;;17.27;100.00;100826.14;634180;225;22859;-77
2021/06/06 00:57:18;;;;;;;23.83;16.57;;;;;;;17.14;100.00;100826.70;636538;226;24870;-74
2021/06/06 00:59:47;;;;;;;20.90;16.03;;;;;;;17.13;100.00;100826.38;637609;225;23904;-75
2021/06/06 01:02:15;;;;;;;22.30;16.40;;;;;;;17.29;100.00;100824.65;632346;225;24921;-74
2021/06/06 01:04:42;;;;;;;22.63;16.43;;;;;;;17.30;100.00;100826.28;619748;229;24045;-75
2021/06/06 01:07:10;;;;;;;23.00;17.20;;;;;;;17.33;100.00;100825.95;620882;229;23889;-74
2021/06/06 01:09:38;;;;;;;25.47;17.47;;;;;;;17.52;100.00;100821.55;629451;227;23882;-76
2021/06/06 01:12:08;;;;;;;23.73;17.80;;;;;;;17.42;100.00;100828.84;627978;225;23851;-75
2021/06/06 01:14:36;;;;;;;24.13;16.80;;;;;;;17.51;100.00;100829.94;639190;224;23897;-75
2021/06/06 01:17:05;;;;;;;30.53;17.30;;;;;;;17.28;100.00;100827.77;619374;229;23851;-74
2021/06/06 01:19:39;;;;;;;27.13;18.97;;;;;;;17.41;100.00;100819.31;618178;229;23895;-74
2021/06/06 01:22:10;;;;;;;24.07;17.00;;;;;;;17.36;100.00;100821.66;637711;224;23832;-75
2021/06/06 22:20:59;;;;;;;35.85;24.10;;;;;;;18.53;94.87;100809.28;645954;217;32792;-79
2021/06/06 22:23:38;;;;;;;35.83;22.80;;;;;;;18.04;96.05;100807.67;642747;221;22715;-78
2021/06/06 22:26:16;;;;;;;29.20;21.50;;;;;;;17.90;98.42;100816.36;655715;217;24773;-78
2021/06/06 22:28:55;;;;;;;34.20;21.80;;;;;;;17.88;98.48;100813.91;655992;217;23823;-80
2021/06/06 22:31:34;;;;;;;34.10;21.70;;;;;;;17.85;98.77;100814.73;644354;221;23817;-78
2021/06/06 22:34:12;;;;;;;36.20;21.17;;;;;;;17.83;98.54;100812.28;645717;222;23851;-79
2021/06/06 22:36:51;;;;;;;30.70;20.00;;;;;;;17.82;99.29;100812.47;652579;217;23907;-78
2021/06/06 22:39:30;;;;;;;37.73;23.45;;;;;;;18.29;97.16;100806.91;649603;218;32871;-78
2021/06/06 22:42:08;;;;;;;35.13;22.60;;;;;;;17.85;99.37;100808.97;655184;217;22688;-78
2021/06/06 22:44:49;;;;;;;33.07;20.77;;;;;;;17.84;100.00;100807.84;654271;219;23786;-78
2021/06/06 22:47:28;;;;;;;34.77;21.50;;;;;;;17.79;100.00;100805.25;652366;219;24761;-79
2021/06/06 22:50:06;;;;;;;34.67;23.25;;;;;;;18.29;97.47;100807.72;652257;217;32612;-81
2021/06/06 22:52:45;;;;;;;35.27;21.40;;;;;;;17.90;100.00;100811.09;658164;218;22676;-78
2021/06/06 22:55:24;;;;;;;37.33;21.43;;;;;;;17.86;100.00;100809.79;653225;218;23794;-79
2021/06/06 22:58:02;;;;;;;37.77;21.20;;;;;;;17.75;100.00;100812.38;656410;217;23804;-78
2021/06/06 23:00:41;;;;;;;33.77;21.50;;;;;;;17.85;100.00;100803.71;652896;218;23798;-78
2021/06/06 23:03:19;;;;;;;36.50;21.77;;;;;;;17.76;100.00;100804.30;655704;218;23772;-78
2021/06/06 23:05:58;;;;;;;37.40;21.40;;;;;;;17.82;100.00;100801.44;654318;218;23776;-78
2021/06/06 23:08:37;;;;;;;35.83;21.20;;;;;;;17.88;100.00;100802.56;651834;218;23798;-78
2021/06/06 23:11:17;;;;;;;35.47;21.80;;;;;;;17.73;100.00;100800.68;644248;221;23830;-78
2021/06/06 23:13:57;;;;;;;33.33;21.80;;;;;;;17.71;100.00;100793.46;645104;222;23843;-78
